sensor_id;sensor_type;location;lat;lon;timestamp;P1;durP1;ratioP1;P2;durP2;ratioP2
36355;SDS011;22384;54.302;18.596;2023-06-22T00:00:36;7.57;;;4.80;;
36355;SDS011;22384;54.302;18.596;2023-06-22T00:03:04;7.68;;;4.78;;
36355;SDS011;22384;54.302;18.596;2023-06-22T00:05:30;9.23;;;4.95;;
36355;SDS011;22384;54.302;18.596;2023-06-22T00:07:56;6.45;;;4.97;;
36355;SDS011;22384;54.302;18.596;2023-06-22T00:10:22;10.15;;;5.40;;
36355;SDS011;22384;54.302;18.596;2023-06-22T00:12:48;9.10;;;5.57;;
36355;SDS011;22384;54.302;18.596;2023-06-22T00:15:14;10.27;;;4.82;;
36355;SDS011;22384;54.302;18.596;2023-06-22T00:17:39;11.40;;;5.07;;
36355;SDS011;22384;54.302;18.596;2023-06-22T00:20:06;8.20;;;5.40;;
36355;SDS011;22384;54.302;18.596;2023-06-22T00:22:34;10.60;;;4.90;;
36355;SDS011;22384;54.302;18.596;2023-06-22T00:25:03;6.35;;;5.00;;
36355;SDS011;22384;54.302;18.596;2023-06-22T00:27:30;7.72;;;5.32;;
36355;SDS011;22384;54.302;18.596;2023-06-22T00:29:55;15.23;;;5.25;;
36355;SDS011;22384;54.302;18.596;2023-06-22T00:32:21;6.68;;;5.22;;
36355;SDS011;22384;54.302;18.596;2023-06-22T00:34:47;7.25;;;4.68;;
36355;SDS011;22384;54.302;18.596;2023-06-22T00:37:15;8.60;;;5.30;;
36355;SDS011;22384;54.302;18.596;2023-06-22T00:39:42;11.55;;;5.35;;
36355;SDS011;22384;54.302;18.596;2023-06-22T00:42:08;10.13;;;6.10;;
36355;SDS011;22384;54.302;18.596;2023-06-22T00:44:37;13.13;;;5.55;;
36355;SDS011;22384;54.302;18.596;2023-06-22T00:47:03;7.55;;;5.35;;
36355;SDS011;22384;54.302;18.596;2023-06-22T00:49:29;8.82;;;5.45;;
36355;SDS011;22384;54.302;18.596;2023-06-22T00:51:56;9.20;;;5.43;;
36355;SDS011;22384;54.302;18.596;2023-06-22T00:54:23;9.68;;;5.32;;
36355;SDS011;22384;54.302;18.596;2023-06-22T00:56:53;11.40;;;5.38;;
36355;SDS011;22384;54.302;18.596;2023-06-22T00:59:21;8.88;;;5.47;;
36355;SDS011;22384;54.302;18.596;2023-06-22T01:01:47;6.80;;;5.05;;
36355;SDS011;22384;54.302;18.596;2023-06-22T01:04:13;6.78;;;4.93;;
36355;SDS011;22384;54.302;18.596;2023-06-22T01:06:41;8.02;;;5.18;;
36355;SDS011;22384;54.302;18.596;2023-06-22T01:09:15;7.72;;;5.18;;
36355;SDS011;22384;54.302;18.596;2023-06-22T01:11:50;8.48;;;5.85;;
36355;SDS011;22384;54.302;18.596;2023-06-22T01:14:27;15.48;;;6.03;;
36355;SDS011;22384;54.302;18.596;2023-06-22T01:16:54;8.60;;;5.63;;
36355;SDS011;22384;54.302;18.596;2023-06-22T01:19:39;10.57;;;5.93;;
36355;SDS011;22384;54.302;18.596;2023-06-22T01:22:08;10.13;;;5.93;;
36355;SDS011;22384;54.302;18.596;2023-06-22T01:29:50;14.88;;;5.85;;
36355;SDS011;22384;54.302;18.596;2023-06-22T01:32:16;9.27;;;5.68;;
36355;SDS011;22384;54.302;18.596;2023-06-22T01:34:43;11.70;;;5.75;;
36355;SDS011;22384;54.302;18.596;2023-06-22T01:37:09;11.13;;;5.82;;
36355;SDS011;22384;54.302;18.596;2023-06-22T01:39:35;8.98;;;5.88;;
36355;SDS011;22384;54.302;18.596;2023-06-22T01:42:02;11.25;;;6.28;;
36355;SDS011;22384;54.302;18.596;2023-06-22T01:44:30;9.70;;;6.32;;
36355;SDS011;22384;54.302;18.596;2023-06-22T01:46:56;13.13;;;5.65;;
36355;SDS011;22384;54.302;18.596;2023-06-22T01:49:22;10.57;;;5.68;;
36355;SDS011;22384;54.302;18.596;2023-06-22T01:51:48;9.05;;;5.95;;
36355;SDS011;22384;54.302;18.596;2023-06-22T01:54:14;11.00;;;6.65;;
36355;SDS011;22384;54.302;18.596;2023-06-22T01:56:40;15.13;;;7.40;;
36355;SDS011;22384;54.302;18.596;2023-06-22T01:59:11;12.05;;;6.53;;
36355;SDS011;22384;54.302;18.596;2023-06-22T02:04:26;14.55;;;7.40;;
36355;SDS011;22384;54.302;18.596;2023-06-22T02:06:55;15.02;;;7.45;;
36355;SDS011;22384;54.302;18.596;2023-06-22T02:09:22;13.55;;;7.13;;
36355;SDS011;22384;54.302;18.596;2023-06-22T02:11:49;18.40;;;7.55;;
36355;SDS011;22384;54.302;18.596;2023-06-22T02:14:18;12.90;;;7.88;;
36355;SDS011;22384;54.302;18.596;2023-06-22T02:16:45;13.50;;;7.78;;
36355;SDS011;22384;54.302;18.596;2023-06-22T02:19:11;13.25;;;7.20;;
36355;SDS011;22384;54.302;18.596;2023-06-22T02:21:37;13.30;;;7.60;;
36355;SDS011;22384;54.302;18.596;2023-06-22T02:24:03;13.48;;;7.20;;
36355;SDS011;22384;54.302;18.596;2023-06-22T02:26:30;11.77;;;7.93;;
36355;SDS011;22384;54.302;18.596;2023-06-22T02:28:56;14.60;;;8.23;;
36355;SDS011;22384;54.302;18.596;2023-06-22T02:31:22;11.98;;;7.80;;
36355;SDS011;22384;54.302;18.596;2023-06-22T02:33:55;11.43;;;8.15;;
36355;SDS011;22384;54.302;18.596;2023-06-22T02:36:22;18.83;;;8.73;;
36355;SDS011;22384;54.302;18.596;2023-06-22T02:38:48;12.27;;;7.80;;
36355;SDS011;22384;54.302;18.596;2023-06-22T02:41:15;15.98;;;8.32;;
36355;SDS011;22384;54.302;18.596;2023-06-22T02:43:45;14.00;;;8.73;;
36355;SDS011;22384;54.302;18.596;2023-06-22T02:46:11;13.98;;;8.70;;
36355;SDS011;22384;54.302;18.596;2023-06-22T02:48:38;18.83;;;9.60;;
36355;SDS011;22384;54.302;18.596;2023-06-22T02:51:04;17.58;;;10.40;;
36355;SDS011;22384;54.302;18.596;2023-06-22T02:53:30;14.43;;;9.45;;
36355;SDS011;22384;54.302;18.596;2023-06-22T02:55:56;15.32;;;9.45;;
36355;SDS011;22384;54.302;18.596;2023-06-22T02:58:22;16.38;;;10.23;;
36355;SDS011;22384;54.302;18.596;2023-06-22T03:00:49;19.45;;;10.75;;
36355;SDS011;22384;54.302;18.596;2023-06-22T03:03:18;16.65;;;11.43;;
36355;SDS011;22384;54.302;18.596;2023-06-22T03:05:44;19.48;;;11.00;;
36355;SDS011;22384;54.302;18.596;2023-06-22T03:08:10;18.35;;;11.07;;
36355;SDS011;22384;54.302;18.596;2023-06-22T03:10:36;20.10;;;11.43;;
36355;SDS011;22384;54.302;18.596;2023-06-22T03:13:02;19.40;;;10.45;;
36355;SDS011;22384;54.302;18.596;2023-06-22T03:15:28;18.25;;;10.80;;
36355;SDS011;22384;54.302;18.596;2023-06-22T03:17:54;17.52;;;10.57;;
36355;SDS011;22384;54.302;18.596;2023-06-22T03:20:20;18.08;;;10.45;;
36355;SDS011;22384;54.302;18.596;2023-06-22T03:22:46;18.27;;;10.43;;
36355;SDS011;22384;54.302;18.596;2023-06-22T03:25:13;20.33;;;10.57;;
36355;SDS011;22384;54.302;18.596;2023-06-22T03:27:40;19.05;;;9.98;;
36355;SDS011;22384;54.302;18.596;2023-06-22T03:30:06;17.58;;;9.88;;
36355;SDS011;22384;54.302;18.596;2023-06-22T03:32:33;17.35;;;9.95;;
36355;SDS011;22384;54.302;18.596;2023-06-22T03:34:59;16.17;;;9.55;;
36355;SDS011;22384;54.302;18.596;2023-06-22T03:37:25;19.45;;;9.85;;
36355;SDS011;22384;54.302;18.596;2023-06-22T03:39:51;16.77;;;9.40;;
36355;SDS011;22384;54.302;18.596;2023-06-22T03:42:17;13.55;;;9.60;;
36355;SDS011;22384;54.302;18.596;2023-06-22T03:44:43;16.27;;;9.23;;
36355;SDS011;22384;54.302;18.596;2023-06-22T03:47:10;17.80;;;9.65;;
36355;SDS011;22384;54.302;18.596;2023-06-22T03:49:36;16.45;;;10.13;;
36355;SDS011;22384;54.302;18.596;2023-06-22T03:52:02;16.25;;;8.75;;
36355;SDS011;22384;54.302;18.596;2023-06-22T03:54:29;18.67;;;8.40;;
36355;SDS011;22384;54.302;18.596;2023-06-22T03:56:56;17.02;;;8.50;;
36355;SDS011;22384;54.302;18.596;2023-06-22T03:59:22;16.20;;;9.35;;
36355;SDS011;22384;54.302;18.596;2023-06-22T04:01:48;15.80;;;9.10;;
36355;SDS011;22384;54.302;18.596;2023-06-22T04:04:15;15.30;;;9.05;;
36355;SDS011;22384;54.302;18.596;2023-06-22T04:06:41;12.02;;;8.50;;
36355;SDS011;22384;54.302;18.596;2023-06-22T04:09:07;16.60;;;9.20;;
36355;SDS011;22384;54.302;18.596;2023-06-22T04:11:33;17.15;;;9.30;;
36355;SDS011;22384;54.302;18.596;2023-06-22T04:13:59;15.93;;;8.60;;
36355;SDS011;22384;54.302;18.596;2023-06-22T04:16:25;10.27;;;8.10;;
36355;SDS011;22384;54.302;18.596;2023-06-22T04:18:51;13.00;;;8.43;;
36355;SDS011;22384;54.302;18.596;2023-06-22T04:21:17;21.27;;;9.18;;
36355;SDS011;22384;54.302;18.596;2023-06-22T04:23:44;14.68;;;8.80;;
36355;SDS011;22384;54.302;18.596;2023-06-22T04:26:11;15.95;;;8.90;;
36355;SDS011;22384;54.302;18.596;2023-06-22T04:28:37;15.07;;;8.07;;
36355;SDS011;22384;54.302;18.596;2023-06-22T04:31:03;16.48;;;8.57;;
36355;SDS011;22384;54.302;18.596;2023-06-22T04:33:29;13.07;;;8.00;;
36355;SDS011;22384;54.302;18.596;2023-06-22T04:35:57;14.63;;;7.70;;
36355;SDS011;22384;54.302;18.596;2023-06-22T04:38:26;11.38;;;7.40;;
36355;SDS011;22384;54.302;18.596;2023-06-22T04:40:52;11.40;;;7.40;;
36355;SDS011;22384;54.302;18.596;2023-06-22T04:43:18;15.02;;;7.85;;
36355;SDS011;22384;54.302;18.596;2023-06-22T04:45:44;13.93;;;7.15;;
36355;SDS011;22384;54.302;18.596;2023-06-22T04:48:10;11.15;;;7.43;;
36355;SDS011;22384;54.302;18.596;2023-06-22T04:50:40;12.18;;;6.68;;
36355;SDS011;22384;54.302;18.596;2023-06-22T04:53:06;16.65;;;6.70;;
36355;SDS011;22384;54.302;18.596;2023-06-22T04:55:34;12.77;;;6.82;;
36355;SDS011;22384;54.302;18.596;2023-06-22T04:58:02;14.85;;;6.90;;
36355;SDS011;22384;54.302;18.596;2023-06-22T05:00:29;11.77;;;7.47;;
36355;SDS011;22384;54.302;18.596;2023-06-22T05:02:56;15.20;;;7.15;;
36355;SDS011;22384;54.302;18.596;2023-06-22T05:05:23;13.32;;;6.43;;
36355;SDS011;22384;54.302;18.596;2023-06-22T05:07:50;16.50;;;7.43;;
36355;SDS011;22384;54.302;18.596;2023-06-22T05:10:17;11.50;;;5.93;;
36355;SDS011;22384;54.302;18.596;2023-06-22T05:12:43;17.00;;;6.90;;
36355;SDS011;22384;54.302;18.596;2023-06-22T05:15:09;13.30;;;5.95;;
36355;SDS011;22384;54.302;18.596;2023-06-22T05:17:36;10.75;;;5.90;;
36355;SDS011;22384;54.302;18.596;2023-06-22T05:20:07;10.32;;;6.32;;
36355;SDS011;22384;54.302;18.596;2023-06-22T05:22:33;14.30;;;6.00;;
36355;SDS011;22384;54.302;18.596;2023-06-22T05:24:59;11.77;;;5.85;;
36355;SDS011;22384;54.302;18.596;2023-06-22T05:27:25;9.30;;;5.25;;
36355;SDS011;22384;54.302;18.596;2023-06-22T05:29:51;16.15;;;5.22;;
36355;SDS011;22384;54.302;18.596;2023-06-22T05:32:17;8.30;;;5.07;;
36355;SDS011;22384;54.302;18.596;2023-06-22T05:34:44;11.32;;;4.95;;
36355;SDS011;22384;54.302;18.596;2023-06-22T05:37:10;10.65;;;4.80;;
36355;SDS011;22384;54.302;18.596;2023-06-22T05:39:37;11.38;;;5.22;;
36355;SDS011;22384;54.302;18.596;2023-06-22T05:42:06;6.95;;;4.00;;
36355;SDS011;22384;54.302;18.596;2023-06-22T05:44:33;9.95;;;4.10;;
36355;SDS011;22384;54.302;18.596;2023-06-22T05:46:59;11.52;;;4.60;;
36355;SDS011;22384;54.302;18.596;2023-06-22T05:49:25;8.65;;;3.65;;
36355;SDS011;22384;54.302;18.596;2023-06-22T05:51:57;8.98;;;3.92;;
36355;SDS011;22384;54.302;18.596;2023-06-22T05:54:23;9.60;;;3.72;;
36355;SDS011;22384;54.302;18.596;2023-06-22T05:56:49;6.60;;;3.58;;
36355;SDS011;22384;54.302;18.596;2023-06-22T05:59:15;7.75;;;3.70;;
36355;SDS011;22384;54.302;18.596;2023-06-22T06:01:41;8.57;;;3.72;;
36355;SDS011;22384;54.302;18.596;2023-06-22T06:04:07;8.57;;;3.88;;
36355;SDS011;22384;54.302;18.596;2023-06-22T06:06:33;9.63;;;3.72;;
36355;SDS011;22384;54.302;18.596;2023-06-22T06:09:02;7.15;;;3.47;;
36355;SDS011;22384;54.302;18.596;2023-06-22T06:11:28;7.85;;;3.60;;
36355;SDS011;22384;54.302;18.596;2023-06-22T06:13:54;8.80;;;3.72;;
36355;SDS011;22384;54.302;18.596;2023-06-22T06:16:20;12.63;;;3.75;;
36355;SDS011;22384;54.302;18.596;2023-06-22T06:18:46;7.15;;;3.33;;
36355;SDS011;22384;54.302;18.596;2023-06-22T06:21:13;10.68;;;3.70;;
36355;SDS011;22384;54.302;18.596;2023-06-22T06:23:39;5.28;;;3.00;;
36355;SDS011;22384;54.302;18.596;2023-06-22T06:26:05;6.85;;;3.17;;
36355;SDS011;22384;54.302;18.596;2023-06-22T06:28:32;7.57;;;3.60;;
36355;SDS011;22384;54.302;18.596;2023-06-22T06:30:58;6.20;;;2.80;;
36355;SDS011;22384;54.302;18.596;2023-06-22T06:33:24;5.38;;;3.08;;
36355;SDS011;22384;54.302;18.596;2023-06-22T06:35:50;6.60;;;2.95;;
36355;SDS011;22384;54.302;18.596;2023-06-22T06:38:16;6.63;;;2.90;;
36355;SDS011;22384;54.302;18.596;2023-06-22T06:40:42;5.30;;;2.50;;
36355;SDS011;22384;54.302;18.596;2023-06-22T06:43:10;7.65;;;2.47;;
36355;SDS011;22384;54.302;18.596;2023-06-22T06:45:36;9.48;;;2.38;;
36355;SDS011;22384;54.302;18.596;2023-06-22T06:48:02;9.45;;;2.75;;
36355;SDS011;22384;54.302;18.596;2023-06-22T06:50:28;5.10;;;2.95;;
36355;SDS011;22384;54.302;18.596;2023-06-22T06:52:54;9.43;;;2.55;;
36355;SDS011;22384;54.302;18.596;2023-06-22T06:55:21;10.98;;;2.60;;
36355;SDS011;22384;54.302;18.596;2023-06-22T06:57:50;10.57;;;2.70;;
36355;SDS011;22384;54.302;18.596;2023-06-22T07:00:17;11.32;;;2.58;;
36355;SDS011;22384;54.302;18.596;2023-06-22T07:02:44;8.07;;;2.42;;
36355;SDS011;22384;54.302;18.596;2023-06-22T07:05:11;7.10;;;2.08;;
36355;SDS011;22384;54.302;18.596;2023-06-22T07:07:37;5.70;;;3.00;;
36355;SDS011;22384;54.302;18.596;2023-06-22T07:10:04;9.60;;;2.50;;
36355;SDS011;22384;54.302;18.596;2023-06-22T07:12:30;9.02;;;2.13;;
36355;SDS011;22384;54.302;18.596;2023-06-22T07:15:03;7.05;;;2.00;;
36355;SDS011;22384;54.302;18.596;2023-06-22T07:17:30;5.50;;;2.70;;
36355;SDS011;22384;54.302;18.596;2023-06-22T07:19:56;7.43;;;2.25;;
36355;SDS011;22384;54.302;18.596;2023-06-22T07:22:22;7.47;;;2.13;;
36355;SDS011;22384;54.302;18.596;2023-06-22T07:24:48;5.40;;;1.98;;
36355;SDS011;22384;54.302;18.596;2023-06-22T07:27:14;6.38;;;2.13;;
36355;SDS011;22384;54.302;18.596;2023-06-22T07:29:44;4.13;;;1.93;;
36355;SDS011;22384;54.302;18.596;2023-06-22T07:32:09;7.47;;;2.10;;
36355;SDS011;22384;54.302;18.596;2023-06-22T07:34:36;6.22;;;1.95;;
36355;SDS011;22384;54.302;18.596;2023-06-22T07:37:02;2.53;;;1.70;;
36355;SDS011;22384;54.302;18.596;2023-06-22T07:39:29;8.85;;;2.28;;
36355;SDS011;22384;54.302;18.596;2023-06-22T07:41:55;5.05;;;2.10;;
36355;SDS011;22384;54.302;18.596;2023-06-22T07:44:21;6.32;;;1.80;;
36355;SDS011;22384;54.302;18.596;2023-06-22T07:46:47;5.50;;;2.00;;
36355;SDS011;22384;54.302;18.596;2023-06-22T07:49:13;6.95;;;2.15;;
36355;SDS011;22384;54.302;18.596;2023-06-22T07:51:39;6.82;;;1.92;;
36355;SDS011;22384;54.302;18.596;2023-06-22T07:54:05;5.20;;;1.92;;
36355;SDS011;22384;54.302;18.596;2023-06-22T07:56:32;9.55;;;2.17;;
36355;SDS011;22384;54.302;18.596;2023-06-22T07:58:58;8.63;;;2.33;;
36355;SDS011;22384;54.302;18.596;2023-06-22T08:01:26;3.35;;;2.00;;
36355;SDS011;22384;54.302;18.596;2023-06-22T08:03:51;7.72;;;2.42;;
36355;SDS011;22384;54.302;18.596;2023-06-22T08:06:18;6.50;;;1.98;;
36355;SDS011;22384;54.302;18.596;2023-06-22T08:08:44;7.05;;;2.15;;
36355;SDS011;22384;54.302;18.596;2023-06-22T08:11:12;5.07;;;2.17;;
36355;SDS011;22384;54.302;18.596;2023-06-22T08:13:38;6.03;;;2.10;;
36355;SDS011;22384;54.302;18.596;2023-06-22T08:16:04;11.43;;;2.30;;
36355;SDS011;22384;54.302;18.596;2023-06-22T08:18:32;4.80;;;1.95;;
36355;SDS011;22384;54.302;18.596;2023-06-22T08:20:58;5.82;;;1.88;;
36355;SDS011;22384;54.302;18.596;2023-06-22T08:23:24;7.88;;;1.80;;
36355;SDS011;22384;54.302;18.596;2023-06-22T08:25:50;4.95;;;1.98;;
36355;SDS011;22384;54.302;18.596;2023-06-22T08:28:16;9.27;;;1.98;;
36355;SDS011;22384;54.302;18.596;2023-06-22T08:30:42;9.32;;;2.53;;
36355;SDS011;22384;54.302;18.596;2023-06-22T08:33:08;5.05;;;2.03;;
36355;SDS011;22384;54.302;18.596;2023-06-22T08:35:34;4.45;;;2.10;;
36355;SDS011;22384;54.302;18.596;2023-06-22T08:38:00;21.30;;;2.55;;
36355;SDS011;22384;54.302;18.596;2023-06-22T08:40:27;8.80;;;2.42;;
36355;SDS011;22384;54.302;18.596;2023-06-22T08:42:54;6.00;;;2.08;;
36355;SDS011;22384;54.302;18.596;2023-06-22T08:45:20;2.65;;;1.90;;
36355;SDS011;22384;54.302;18.596;2023-06-22T08:47:46;7.13;;;2.22;;
36355;SDS011;22384;54.302;18.596;2023-06-22T08:50:12;6.50;;;2.10;;
36355;SDS011;22384;54.302;18.596;2023-06-22T08:52:39;7.35;;;1.90;;
36355;SDS011;22384;54.302;18.596;2023-06-22T08:55:06;10.18;;;2.50;;
36355;SDS011;22384;54.302;18.596;2023-06-22T08:57:32;14.32;;;2.45;;
36355;SDS011;22384;54.302;18.596;2023-06-22T08:59:59;6.22;;;2.67;;
36355;SDS011;22384;54.302;18.596;2023-06-22T09:02:25;6.95;;;2.13;;
36355;SDS011;22384;54.302;18.596;2023-06-22T09:04:54;7.95;;;1.92;;
36355;SDS011;22384;54.302;18.596;2023-06-22T09:07:21;5.13;;;2.20;;
36355;SDS011;22384;54.302;18.596;2023-06-22T09:09:49;7.70;;;1.80;;
36355;SDS011;22384;54.302;18.596;2023-06-22T09:12:15;4.05;;;2.08;;
36355;SDS011;22384;54.302;18.596;2023-06-22T09:14:41;3.75;;;2.08;;
36355;SDS011;22384;54.302;18.596;2023-06-22T09:17:07;6.80;;;1.45;;
36355;SDS011;22384;54.302;18.596;2023-06-22T09:19:32;9.10;;;1.60;;
36355;SDS011;22384;54.302;18.596;2023-06-22T09:21:59;8.25;;;1.80;;
36355;SDS011;22384;54.302;18.596;2023-06-22T09:24:25;3.35;;;1.50;;
36355;SDS011;22384;54.302;18.596;2023-06-22T09:26:51;6.95;;;1.88;;
36355;SDS011;22384;54.302;18.596;2023-06-22T09:29:17;3.47;;;1.73;;
36355;SDS011;22384;54.302;18.596;2023-06-22T09:31:43;2.88;;;1.63;;
36355;SDS011;22384;54.302;18.596;2023-06-22T09:34:09;7.18;;;1.58;;
36355;SDS011;22384;54.302;18.596;2023-06-22T09:36:35;4.72;;;1.83;;
36355;SDS011;22384;54.302;18.596;2023-06-22T09:39:02;4.20;;;1.80;;
36355;SDS011;22384;54.302;18.596;2023-06-22T09:41:31;4.07;;;1.77;;
36355;SDS011;22384;54.302;18.596;2023-06-22T09:43:57;2.92;;;1.50;;
36355;SDS011;22384;54.302;18.596;2023-06-22T09:46:23;7.00;;;2.10;;
36355;SDS011;22384;54.302;18.596;2023-06-22T09:48:52;7.33;;;1.93;;
36355;SDS011;22384;54.302;18.596;2023-06-22T09:51:18;7.25;;;1.92;;
36355;SDS011;22384;54.302;18.596;2023-06-22T09:53:48;3.63;;;1.83;;
36355;SDS011;22384;54.302;18.596;2023-06-22T09:56:15;3.10;;;1.50;;
36355;SDS011;22384;54.302;18.596;2023-06-22T09:58:44;7.35;;;1.63;;
36355;SDS011;22384;54.302;18.596;2023-06-22T10:01:11;7.40;;;1.88;;
36355;SDS011;22384;54.302;18.596;2023-06-22T10:03:39;6.32;;;1.90;;
36355;SDS011;22384;54.302;18.596;2023-06-22T10:06:06;5.88;;;1.65;;
36355;SDS011;22384;54.302;18.596;2023-06-22T10:08:32;14.88;;;1.90;;
36355;SDS011;22384;54.302;18.596;2023-06-22T10:10:58;2.88;;;1.67;;
36355;SDS011;22384;54.302;18.596;2023-06-22T10:13:24;10.68;;;2.03;;
36355;SDS011;22384;54.302;18.596;2023-06-22T10:15:50;4.93;;;1.80;;
36355;SDS011;22384;54.302;18.596;2023-06-22T10:18:20;3.13;;;1.83;;
36355;SDS011;22384;54.302;18.596;2023-06-22T10:20:49;2.03;;;1.33;;
36355;SDS011;22384;54.302;18.596;2023-06-22T10:23:19;2.60;;;1.35;;
36355;SDS011;22384;54.302;18.596;2023-06-22T10:25:45;5.30;;;1.73;;
36355;SDS011;22384;54.302;18.596;2023-06-22T10:28:11;3.60;;;1.85;;
36355;SDS011;22384;54.302;18.596;2023-06-22T10:30:38;4.68;;;1.67;;
36355;SDS011;22384;54.302;18.596;2023-06-22T10:33:06;5.93;;;1.58;;
36355;SDS011;22384;54.302;18.596;2023-06-22T10:35:32;8.70;;;2.40;;
36355;SDS011;22384;54.302;18.596;2023-06-22T10:37:58;6.88;;;2.00;;
36355;SDS011;22384;54.302;18.596;2023-06-22T10:40:24;5.97;;;1.70;;
36355;SDS011;22384;54.302;18.596;2023-06-22T10:42:50;5.25;;;1.77;;
36355;SDS011;22384;54.302;18.596;2023-06-22T10:45:17;1.63;;;1.42;;
36355;SDS011;22384;54.302;18.596;2023-06-22T10:47:43;2.78;;;1.60;;
36355;SDS011;22384;54.302;18.596;2023-06-22T10:50:09;3.28;;;1.67;;
36355;SDS011;22384;54.302;18.596;2023-06-22T10:52:35;3.25;;;1.60;;
36355;SDS011;22384;54.302;18.596;2023-06-22T10:55:01;1.85;;;1.40;;
36355;SDS011;22384;54.302;18.596;2023-06-22T10:57:27;5.47;;;2.13;;
36355;SDS011;22384;54.302;18.596;2023-06-22T10:59:53;6.45;;;2.20;;
36355;SDS011;22384;54.302;18.596;2023-06-22T11:02:19;4.88;;;1.80;;
36355;SDS011;22384;54.302;18.596;2023-06-22T11:04:45;6.60;;;2.95;;
36355;SDS011;22384;54.302;18.596;2023-06-22T11:07:12;4.75;;;1.70;;
36355;SDS011;22384;54.302;18.596;2023-06-22T11:09:38;3.40;;;1.92;;
36355;SDS011;22384;54.302;18.596;2023-06-22T11:12:04;7.35;;;1.85;;
36355;SDS011;22384;54.302;18.596;2023-06-22T11:14:31;3.25;;;1.75;;
36355;SDS011;22384;54.302;18.596;2023-06-22T11:16:58;3.47;;;1.65;;
36355;SDS011;22384;54.302;18.596;2023-06-22T11:19:24;4.68;;;1.70;;
36355;SDS011;22384;54.302;18.596;2023-06-22T11:21:50;188.38;;;12.10;;
36355;SDS011;22384;54.302;18.596;2023-06-22T11:24:16;2.92;;;1.77;;
36355;SDS011;22384;54.302;18.596;2023-06-22T11:26:43;9.05;;;1.75;;
36355;SDS011;22384;54.302;18.596;2023-06-22T11:29:09;3.08;;;1.63;;
36355;SDS011;22384;54.302;18.596;2023-06-22T11:31:35;6.25;;;1.73;;
36355;SDS011;22384;54.302;18.596;2023-06-22T11:34:01;6.00;;;1.75;;
36355;SDS011;22384;54.302;18.596;2023-06-22T11:36:28;4.63;;;1.58;;
36355;SDS011;22384;54.302;18.596;2023-06-22T11:38:57;3.50;;;1.80;;
36355;SDS011;22384;54.302;18.596;2023-06-22T11:41:23;2.30;;;1.38;;
36355;SDS011;22384;54.302;18.596;2023-06-22T11:43:49;3.00;;;2.03;;
36355;SDS011;22384;54.302;18.596;2023-06-22T11:46:15;6.15;;;1.75;;
36355;SDS011;22384;54.302;18.596;2023-06-22T11:48:41;6.30;;;2.13;;
36355;SDS011;22384;54.302;18.596;2023-06-22T11:51:07;3.10;;;1.52;;
36355;SDS011;22384;54.302;18.596;2023-06-22T11:53:34;4.85;;;2.58;;
36355;SDS011;22384;54.302;18.596;2023-06-22T11:56:00;6.85;;;1.70;;
36355;SDS011;22384;54.302;18.596;2023-06-22T11:58:26;4.85;;;1.48;;
36355;SDS011;22384;54.302;18.596;2023-06-22T12:00:53;1.58;;;1.17;;
36355;SDS011;22384;54.302;18.596;2023-06-22T12:03:19;3.22;;;1.60;;
36355;SDS011;22384;54.302;18.596;2023-06-22T12:05:49;5.38;;;1.48;;
36355;SDS011;22384;54.302;18.596;2023-06-22T12:08:16;2.97;;;2.20;;
36355;SDS011;22384;54.302;18.596;2023-06-22T12:10:42;8.23;;;2.65;;
36355;SDS011;22384;54.302;18.596;2023-06-22T12:13:08;4.10;;;2.30;;
36355;SDS011;22384;54.302;18.596;2023-06-22T12:15:34;4.68;;;2.40;;
36355;SDS011;22384;54.302;18.596;2023-06-22T12:18:00;8.07;;;2.47;;
36355;SDS011;22384;54.302;18.596;2023-06-22T12:20:26;13.73;;;2.30;;
36355;SDS011;22384;54.302;18.596;2023-06-22T12:22:52;4.70;;;2.05;;
36355;SDS011;22384;54.302;18.596;2023-06-22T12:25:20;8.45;;;2.13;;
36355;SDS011;22384;54.302;18.596;2023-06-22T12:27:46;7.80;;;2.28;;
36355;SDS011;22384;54.302;18.596;2023-06-22T12:30:12;6.75;;;2.67;;
36355;SDS011;22384;54.302;18.596;2023-06-22T12:32:38;7.47;;;2.50;;
36355;SDS011;22384;54.302;18.596;2023-06-22T12:35:04;6.03;;;2.67;;
36355;SDS011;22384;54.302;18.596;2023-06-22T12:37:32;5.25;;;2.25;;
36355;SDS011;22384;54.302;18.596;2023-06-22T12:39:58;4.97;;;2.15;;
36355;SDS011;22384;54.302;18.596;2023-06-22T12:42:24;4.13;;;2.15;;
36355;SDS011;22384;54.302;18.596;2023-06-22T12:44:53;6.32;;;2.05;;
36355;SDS011;22384;54.302;18.596;2023-06-22T12:47:19;8.52;;;2.25;;
36355;SDS011;22384;54.302;18.596;2023-06-22T12:49:45;6.90;;;2.25;;
36355;SDS011;22384;54.302;18.596;2023-06-22T12:52:11;11.60;;;2.67;;
36355;SDS011;22384;54.302;18.596;2023-06-22T12:54:37;8.82;;;2.20;;
36355;SDS011;22384;54.302;18.596;2023-06-22T12:57:03;4.78;;;2.38;;
36355;SDS011;22384;54.302;18.596;2023-06-22T12:59:29;7.25;;;2.42;;
36355;SDS011;22384;54.302;18.596;2023-06-22T13:01:55;7.03;;;1.88;;
36355;SDS011;22384;54.302;18.596;2023-06-22T13:04:21;3.63;;;2.00;;
36355;SDS011;22384;54.302;18.596;2023-06-22T13:06:47;4.95;;;2.05;;
36355;SDS011;22384;54.302;18.596;2023-06-22T13:09:14;4.80;;;2.08;;
36355;SDS011;22384;54.302;18.596;2023-06-22T13:11:41;5.22;;;2.30;;
36355;SDS011;22384;54.302;18.596;2023-06-22T13:14:07;5.07;;;2.05;;
36355;SDS011;22384;54.302;18.596;2023-06-22T13:16:33;3.92;;;2.05;;
36355;SDS011;22384;54.302;18.596;2023-06-22T13:18:59;5.70;;;2.20;;
36355;SDS011;22384;54.302;18.596;2023-06-22T13:21:25;5.25;;;2.17;;
36355;SDS011;22384;54.302;18.596;2023-06-22T13:23:51;6.93;;;2.33;;
36355;SDS011;22384;54.302;18.596;2023-06-22T13:26:17;4.22;;;2.15;;
36355;SDS011;22384;54.302;18.596;2023-06-22T13:28:43;2.65;;;1.70;;
36355;SDS011;22384;54.302;18.596;2023-06-22T13:31:09;8.82;;;2.63;;
36355;SDS011;22384;54.302;18.596;2023-06-22T13:33:35;3.42;;;1.92;;
36355;SDS011;22384;54.302;18.596;2023-06-22T13:36:01;2.92;;;2.05;;
36355;SDS011;22384;54.302;18.596;2023-06-22T13:38:28;8.63;;;2.45;;
36355;SDS011;22384;54.302;18.596;2023-06-22T13:40:56;9.07;;;2.17;;
36355;SDS011;22384;54.302;18.596;2023-06-22T13:43:24;4.35;;;2.03;;
36355;SDS011;22384;54.302;18.596;2023-06-22T13:45:50;2.60;;;1.52;;
36355;SDS011;22384;54.302;18.596;2023-06-22T13:48:16;5.35;;;2.08;;
36355;SDS011;22384;54.302;18.596;2023-06-22T13:50:42;6.75;;;1.90;;
36355;SDS011;22384;54.302;18.596;2023-06-22T13:53:08;5.60;;;1.98;;
36355;SDS011;22384;54.302;18.596;2023-06-22T13:55:34;4.18;;;2.00;;
36355;SDS011;22384;54.302;18.596;2023-06-22T13:58:00;4.00;;;1.95;;
36355;SDS011;22384;54.302;18.596;2023-06-22T14:00:26;4.70;;;2.30;;
36355;SDS011;22384;54.302;18.596;2023-06-22T14:02:53;3.60;;;1.75;;
36355;SDS011;22384;54.302;18.596;2023-06-22T14:05:19;4.75;;;2.00;;
36355;SDS011;22384;54.302;18.596;2023-06-22T14:07:45;4.55;;;2.20;;
36355;SDS011;22384;54.302;18.596;2023-06-22T14:10:11;4.43;;;1.90;;
36355;SDS011;22384;54.302;18.596;2023-06-22T14:12:37;7.00;;;2.05;;
36355;SDS011;22384;54.302;18.596;2023-06-22T14:15:03;3.10;;;2.00;;
36355;SDS011;22384;54.302;18.596;2023-06-22T14:17:29;3.60;;;1.92;;
36355;SDS011;22384;54.302;18.596;2023-06-22T14:19:55;3.85;;;2.22;;
36355;SDS011;22384;54.302;18.596;2023-06-22T14:22:21;3.65;;;1.95;;
36355;SDS011;22384;54.302;18.596;2023-06-22T14:24:48;2.63;;;1.80;;
36355;SDS011;22384;54.302;18.596;2023-06-22T14:27:14;3.25;;;1.80;;
36355;SDS011;22384;54.302;18.596;2023-06-22T14:29:40;8.45;;;3.08;;
36355;SDS011;22384;54.302;18.596;2023-06-22T14:32:07;3.63;;;1.60;;